sensor_id;sensor_type;location;lat;lon;timestamp;temperature;humidity
2621;DHT22;1320;48.128;11.592;2023-10-19T05:46:23;12.70;99.90
2621;DHT22;1320;48.128;11.592;2023-10-19T05:48:50;12.60;99.90
2621;DHT22;1320;48.128;11.592;2023-10-19T05:51:16;12.60;99.90
2621;DHT22;1320;48.128;11.592;2023-10-19T05:53:43;12.60;99.90
2621;DHT22;1320;48.128;11.592;2023-10-19T05:56:12;12.60;99.90
2621;DHT22;1320;48.128;11.592;2023-10-19T05:58:38;12.70;99.90
2621;DHT22;1320;48.128;11.592;2023-10-19T06:01:03;12.70;99.90
2621;DHT22;1320;48.128;11.592;2023-10-19T06:03:30;12.70;99.90
2621;DHT22;1320;48.128;11.592;2023-10-19T06:05:56;12.70;99.90
2621;DHT22;1320;48.128;11.592;2023-10-19T06:08:22;12.70;99.90
2621;DHT22;1320;48.128;11.592;2023-10-19T06:10:54;12.70;99.90
2621;DHT22;1320;48.128;11.592;2023-10-19T06:13:20;12.70;99.90
2621;DHT22;1320;48.128;11.592;2023-10-19T06:15:48;12.70;99.90
2621;DHT22;1320;48.128;11.592;2023-10-19T06:18:14;12.70;99.90
2621;DHT22;1320;48.128;11.592;2023-10-19T06:20:44;12.70;99.90
2621;DHT22;1320;48.128;11.592;2023-10-19T06:23:10;12.80;99.90
2621;DHT22;1320;48.128;11.592;2023-10-19T06:25:37;12.80;99.90
2621;DHT22;1320;48.128;11.592;2023-10-19T06:28:04;12.80;99.90
2621;DHT22;1320;48.128;11.592;2023-10-19T06:30:31;12.80;99.90
2621;DHT22;1320;48.128;11.592;2023-10-19T06:32:58;12.90;99.90
2621;DHT22;1320;48.128;11.592;2023-10-19T06:35:31;12.90;99.90
2621;DHT22;1320;48.128;11.592;2023-10-19T06:37:57;13.00;99.90
2621;DHT22;1320;48.128;11.592;2023-10-19T06:40:24;13.00;99.90
2621;DHT22;1320;48.128;11.592;2023-10-19T06:42:54;13.00;99.90
2621;DHT22;1320;48.128;11.592;2023-10-19T06:45:21;13.10;99.90
2621;DHT22;1320;48.128;11.592;2023-10-19T06:47:48;13.10;99.90
2621;DHT22;1320;48.128;11.592;2023-10-19T06:50:16;13.10;99.90
2621;DHT22;1320;48.128;11.592;2023-10-19T06:52:44;13.20;99.90
2621;DHT22;1320;48.128;11.592;2023-10-19T06:55:11;13.20;99.90
2621;DHT22;1320;48.128;11.592;2023-10-19T06:57:41;13.10;99.90
2621;DHT22;1320;48.128;11.592;2023-10-19T07:00:10;13.20;99.90
2621;DHT22;1320;48.128;11.592;2023-10-19T07:02:40;13.20;99.90
2621;DHT22;1320;48.128;11.592;2023-10-19T07:05:07;13.20;99.90
2621;DHT22;1320;48.128;11.592;2023-10-19T07:07:36;13.20;99.90
2621;DHT22;1320;48.128;11.592;2023-10-19T07:10:01;13.30;99.90
2621;DHT22;1320;48.128;11.592;2023-10-19T07:12:29;13.30;99.90
2621;DHT22;1320;48.128;11.592;2023-10-19T07:14:54;13.30;99.90
2621;DHT22;1320;48.128;11.592;2023-10-19T07:17:20;13.50;99.90
2621;DHT22;1320;48.128;11.592;2023-10-19T07:19:45;13.60;99.90
2621;DHT22;1320;48.128;11.592;2023-10-19T07:22:14;13.70;99.90
2621;DHT22;1320;48.128;11.592;2023-10-19T07:24:40;13.80;99.90
2621;DHT22;1320;48.128;11.592;2023-10-19T07:27:07;13.90;99.90
2621;DHT22;1320;48.128;11.592;2023-10-19T07:29:33;14.00;99.90
2621;DHT22;1320;48.128;11.592;2023-10-19T07:32:02;14.10;99.90
2621;DHT22;1320;48.128;11.592;2023-10-19T07:34:31;14.20;99.90
2621;DHT22;1320;48.128;11.592;2023-10-19T07:36:58;14.40;99.90
2621;DHT22;1320;48.128;11.592;2023-10-19T07:39:26;14.60;99.90
2621;DHT22;1320;48.128;11.592;2023-10-19T07:41:55;14.80;99.90
2621;DHT22;1320;48.128;11.592;2023-10-19T07:44:21;14.90;99.90
2621;DHT22;1320;48.128;11.592;2023-10-19T07:46:46;15.10;99.90
2621;DHT22;1320;48.128;11.592;2023-10-19T07:49:12;15.30;99.90
2621;DHT22;1320;48.128;11.592;2023-10-19T07:51:45;15.40;99.90
2621;DHT22;1320;48.128;11.592;2023-10-19T07:54:11;15.50;99.90
2621;DHT22;1320;48.128;11.592;2023-10-19T07:56:37;15.60;99.90
2621;DHT22;1320;48.128;11.592;2023-10-19T07:59:03;15.70;99.90
2621;DHT22;1320;48.128;11.592;2023-10-19T08:01:29;15.80;99.90
2621;DHT22;1320;48.128;11.592;2023-10-19T08:03:54;15.90;99.90
2621;DHT22;1320;48.128;11.592;2023-10-19T08:06:20;15.90;99.90
2621;DHT22;1320;48.128;11.592;2023-10-19T08:08:46;16.00;99.90
2621;DHT22;1320;48.128;11.592;2023-10-19T08:11:11;16.00;99.90
2621;DHT22;1320;48.128;11.592;2023-10-19T08:13:38;16.00;99.90
2621;DHT22;1320;48.128;11.592;2023-10-19T08:16:05;16.10;99.90
2621;DHT22;1320;48.128;11.592;2023-10-19T08:18:33;16.30;99.90
2621;DHT22;1320;48.128;11.592;2023-10-19T08:21:01;16.40;99.90
2621;DHT22;1320;48.128;11.592;2023-10-19T08:23:27;16.50;99.90
2621;DHT22;1320;48.128;11.592;2023-10-19T08:25:53;16.60;99.90
2621;DHT22;1320;48.128;11.592;2023-10-19T08:30:46;17.00;99.90
2621;DHT22;1320;48.128;11.592;2023-10-19T08:33:23;17.10;99.90
2621;DHT22;1320;48.128;11.592;2023-10-19T08:35:52;17.30;99.90
2621;DHT22;1320;48.128;11.592;2023-10-19T08:38:19;17.50;99.90
2621;DHT22;1320;48.128;11.592;2023-10-19T08:40:44;17.60;99.90
2621;DHT22;1320;48.128;11.592;2023-10-19T08:43:11;17.80;99.90
2621;DHT22;1320;48.128;11.592;2023-10-19T08:45:39;17.90;99.90
2621;DHT22;1320;48.128;11.592;2023-10-19T08:48:05;18.10;99.90
2621;DHT22;1320;48.128;11.592;2023-10-19T08:50:32;18.20;99.90
2621;DHT22;1320;48.128;11.592;2023-10-19T08:53:01;18.30;99.90
2621;DHT22;1320;48.128;11.592;2023-10-19T08:55:28;18.40;99.90
2621;DHT22;1320;48.128;11.592;2023-10-19T08:57:55;18.50;99.90
2621;DHT22;1320;48.128;11.592;2023-10-19T09:00:23;18.60;99.90
2621;DHT22;1320;48.128;11.592;2023-10-19T09:02:51;18.70;99.90
2621;DHT22;1320;48.128;11.592;2023-10-19T09:05:17;18.80;99.90
2621;DHT22;1320;48.128;11.592;2023-10-19T09:07:48;18.90;99.90
2621;DHT22;1320;48.128;11.592;2023-10-19T09:10:23;18.90;99.90
2621;DHT22;1320;48.128;11.592;2023-10-19T09:13:07;19.00;99.90
2621;DHT22;1320;48.128;11.592;2023-10-19T09:15:36;19.00;99.90
2621;DHT22;1320;48.128;11.592;2023-10-19T09:18:11;19.00;99.90
2621;DHT22;1320;48.128;11.592;2023-10-19T09:20:39;19.10;99.90
2621;DHT22;1320;48.128;11.592;2023-10-19T09:23:04;19.10;99.90
2621;DHT22;1320;48.128;11.592;2023-10-19T09:25:32;19.10;99.90
2621;DHT22;1320;48.128;11.592;2023-10-19T09:28:00;19.10;99.90
2621;DHT22;1320;48.128;11.592;2023-10-19T09:30:29;19.00;99.90
2621;DHT22;1320;48.128;11.592;2023-10-19T09:32:59;19.00;99.90
2621;DHT22;1320;48.128;11.592;2023-10-19T09:35:26;19.00;99.90
2621;DHT22;1320;48.128;11.592;2023-10-19T09:37:54;19.00;99.90
2621;DHT22;1320;48.128;11.592;2023-10-19T09:40:21;19.00;99.90
2621;DHT22;1320;48.128;11.592;2023-10-19T09:42:49;19.00;99.90
2621;DHT22;1320;48.128;11.592;2023-10-19T09:45:19;19.00;99.90
2621;DHT22;1320;48.128;11.592;2023-10-19T09:47:50;19.00;99.90
2621;DHT22;1320;48.128;11.592;2023-10-19T09:50:16;19.00;99.90
2621;DHT22;1320;48.128;11.592;2023-10-19T09:52:42;19.00;99.90
2621;DHT22;1320;48.128;11.592;2023-10-19T09:55:14;19.10;99.90
2621;DHT22;1320;48.128;11.592;2023-10-19T09:57:50;19.20;99.90
2621;DHT22;1320;48.128;11.592;2023-10-19T10:08:29;20.20;99.90
2621;DHT22;1320;48.128;11.592;2023-10-19T10:10:55;20.60;99.90
2621;DHT22;1320;48.128;11.592;2023-10-19T10:15:53;20.70;99.90
2621;DHT22;1320;48.128;11.592;2023-10-19T10:18:26;20.70;99.90
2621;DHT22;1320;48.128;11.592;2023-10-19T10:21:06;20.80;99.90
2621;DHT22;1320;48.128;11.592;2023-10-19T10:23:46;20.80;99.90
2621;DHT22;1320;48.128;11.592;2023-10-19T10:26:14;20.80;99.90
2621;DHT22;1320;48.128;11.592;2023-10-19T10:28:40;20.80;99.90
2621;DHT22;1320;48.128;11.592;2023-10-19T10:31:20;20.80;99.90
2621;DHT22;1320;48.128;11.592;2023-10-19T10:33:51;20.90;99.90
2621;DHT22;1320;48.128;11.592;2023-10-19T10:36:20;20.90;99.90
2621;DHT22;1320;48.128;11.592;2023-10-19T10:38:51;20.90;99.90
2621;DHT22;1320;48.128;11.592;2023-10-19T10:41:24;21.00;99.90
2621;DHT22;1320;48.128;11.592;2023-10-19T10:43:58;21.00;99.90
2621;DHT22;1320;48.128;11.592;2023-10-19T10:46:28;21.00;99.90
2621;DHT22;1320;48.128;11.592;2023-10-19T10:48:57;21.10;99.90
2621;DHT22;1320;48.128;11.592;2023-10-19T10:51:25;21.10;99.90
2621;DHT22;1320;48.128;11.592;2023-10-19T10:53:53;21.10;99.90
2621;DHT22;1320;48.128;11.592;2023-10-19T10:56:21;21.10;99.90
2621;DHT22;1320;48.128;11.592;2023-10-19T10:58:47;21.20;99.90
2621;DHT22;1320;48.128;11.592;2023-10-19T11:01:13;21.20;99.90
2621;DHT22;1320;48.128;11.592;2023-10-19T11:03:40;21.30;99.90
2621;DHT22;1320;48.128;11.592;2023-10-19T11:06:08;21.40;99.90
2621;DHT22;1320;48.128;11.592;2023-10-19T11:08:35;21.60;99.90
2621;DHT22;1320;48.128;11.592;2023-10-19T11:11:08;21.70;99.90
2621;DHT22;1320;48.128;11.592;2023-10-19T11:13:38;21.80;99.90
2621;DHT22;1320;48.128;11.592;2023-10-19T11:16:06;21.90;99.90
2621;DHT22;1320;48.128;11.592;2023-10-19T11:18:38;21.90;99.90
2621;DHT22;1320;48.128;11.592;2023-10-19T11:21:12;21.90;99.90
2621;DHT22;1320;48.128;11.592;2023-10-19T11:23:45;22.00;99.90
2621;DHT22;1320;48.128;11.592;2023-10-19T11:26:18;22.10;99.90
2621;DHT22;1320;48.128;11.592;2023-10-19T11:28:44;22.10;99.90
2621;DHT22;1320;48.128;11.592;2023-10-19T11:31:22;22.20;99.90
2621;DHT22;1320;48.128;11.592;2023-10-19T11:33:49;22.20;99.90
2621;DHT22;1320;48.128;11.592;2023-10-19T11:36:16;22.10;99.90
2621;DHT22;1320;48.128;11.592;2023-10-19T11:38:43;22.10;99.90
2621;DHT22;1320;48.128;11.592;2023-10-19T11:41:10;22.10;99.90
2621;DHT22;1320;48.128;11.592;2023-10-19T11:43:36;22.00;99.90
2621;DHT22;1320;48.128;11.592;2023-10-19T11:46:02;22.00;99.90
2621;DHT22;1320;48.128;11.592;2023-10-19T11:48:33;21.90;99.90
2621;DHT22;1320;48.128;11.592;2023-10-19T11:51:00;21.80;99.90
2621;DHT22;1320;48.128;11.592;2023-10-19T11:53:25;21.80;99.90
2621;DHT22;1320;48.128;11.592;2023-10-19T11:55:51;21.60;99.90
2621;DHT22;1320;48.128;11.592;2023-10-19T11:58:17;21.60;99.90
2621;DHT22;1320;48.128;11.592;2023-10-19T12:00:43;21.60;99.90
2621;DHT22;1320;48.128;11.592;2023-10-19T12:03:12;21.60;99.90
2621;DHT22;1320;48.128;11.592;2023-10-19T12:05:39;21.50;99.90
2621;DHT22;1320;48.128;11.592;2023-10-19T12:08:05;21.50;99.90
2621;DHT22;1320;48.128;11.592;2023-10-19T12:10:32;21.40;99.90
2621;DHT22;1320;48.128;11.592;2023-10-19T12:13:04;21.50;99.90
2621;DHT22;1320;48.128;11.592;2023-10-19T12:15:34;21.50;99.90
2621;DHT22;1320;48.128;11.592;2023-10-19T12:17:59;21.70;99.90
2621;DHT22;1320;48.128;11.592;2023-10-19T12:20:26;21.90;99.90
2621;DHT22;1320;48.128;11.592;2023-10-19T12:25:20;22.30;99.90
2621;DHT22;1320;48.128;11.592;2023-10-19T12:27:54;22.30;99.90
2621;DHT22;1320;48.128;11.592;2023-10-19T12:30:20;22.30;99.90
2621;DHT22;1320;48.128;11.592;2023-10-19T12:32:50;22.30;99.90
2621;DHT22;1320;48.128;11.592;2023-10-19T12:35:16;22.30;99.90
2621;DHT22;1320;48.128;11.592;2023-10-19T12:37:45;22.30;99.90
2621;DHT22;1320;48.128;11.592;2023-10-19T12:40:17;22.40;99.90
2621;DHT22;1320;48.128;11.592;2023-10-19T12:42:55;22.50;99.90
2621;DHT22;1320;48.128;11.592;2023-10-19T12:45:22;22.60;99.90
2621;DHT22;1320;48.128;11.592;2023-10-19T12:47:48;22.70;99.90
2621;DHT22;1320;48.128;11.592;2023-10-19T12:50:14;22.70;99.90
2621;DHT22;1320;48.128;11.592;2023-10-19T12:52:41;22.70;99.90
2621;DHT22;1320;48.128;11.592;2023-10-19T12:55:07;22.80;99.90
2621;DHT22;1320;48.128;11.592;2023-10-19T12:57:34;22.80;99.90
2621;DHT22;1320;48.128;11.592;2023-10-19T13:00:00;23.00;99.90
2621;DHT22;1320;48.128;11.592;2023-10-19T13:02:48;23.00;99.90
2621;DHT22;1320;48.128;11.592;2023-10-19T13:05:14;23.00;99.90
2621;DHT22;1320;48.128;11.592;2023-10-19T13:07:44;23.10;99.90
2621;DHT22;1320;48.128;11.592;2023-10-19T13:10:09;23.10;99.90
2621;DHT22;1320;48.128;11.592;2023-10-19T13:12:37;23.10;99.90
2621;DHT22;1320;48.128;11.592;2023-10-19T13:15:03;23.20;99.90
2621;DHT22;1320;48.128;11.592;2023-10-19T13:17:32;23.30;99.90
2621;DHT22;1320;48.128;11.592;2023-10-19T13:19:58;23.40;99.90
2621;DHT22;1320;48.128;11.592;2023-10-19T13:22:26;23.40;99.90
2621;DHT22;1320;48.128;11.592;2023-10-19T13:24:52;23.30;99.90
2621;DHT22;1320;48.128;11.592;2023-10-19T13:27:18;23.30;99.90
2621;DHT22;1320;48.128;11.592;2023-10-19T13:29:44;23.20;99.90
2621;DHT22;1320;48.128;11.592;2023-10-19T13:32:12;23.20;99.90
2621;DHT22;1320;48.128;11.592;2023-10-19T13:34:38;23.00;99.90
2621;DHT22;1320;48.128;11.592;2023-10-19T13:37:05;22.90;99.90
2621;DHT22;1320;48.128;11.592;2023-10-19T13:39:33;22.90;99.90
2621;DHT22;1320;48.128;11.592;2023-10-19T13:41:59;22.80;99.90
2621;DHT22;1320;48.128;11.592;2023-10-19T13:44:24;22.70;99.90
2621;DHT22;1320;48.128;11.592;2023-10-19T13:46:52;22.60;99.90
2621;DHT22;1320;48.128;11.592;2023-10-19T13:49:19;22.50;99.90
2621;DHT22;1320;48.128;11.592;2023-10-19T13:51:48;22.30;99.90
2621;DHT22;1320;48.128;11.592;2023-10-19T13:54:14;22.20;99.90
2621;DHT22;1320;48.128;11.592;2023-10-19T13:56:39;22.10;99.90
2621;DHT22;1320;48.128;11.592;2023-10-19T13:59:05;22.00;99.90
2621;DHT22;1320;48.128;11.592;2023-10-19T14:01:30;21.90;99.90
2621;DHT22;1320;48.128;11.592;2023-10-19T14:03:56;21.80;99.90
2621;DHT22;1320;48.128;11.592;2023-10-19T14:06:22;21.60;99.90
2621;DHT22;1320;48.128;11.592;2023-10-19T14:08:49;21.60;99.90
2621;DHT22;1320;48.128;11.592;2023-10-19T14:11:15;21.50;99.90
2621;DHT22;1320;48.128;11.592;2023-10-19T14:13:40;21.40;99.90
2621;DHT22;1320;48.128;11.592;2023-10-19T14:16:08;21.40;99.90
2621;DHT22;1320;48.128;11.592;2023-10-19T14:18:35;21.30;99.90
2621;DHT22;1320;48.128;11.592;2023-10-19T14:21:01;21.20;99.90
2621;DHT22;1320;48.128;11.592;2023-10-19T14:23:26;21.10;99.90
2621;DHT22;1320;48.128;11.592;2023-10-19T14:25:52;21.00;99.90
2621;DHT22;1320;48.128;11.592;2023-10-19T14:28:18;20.90;99.90
2621;DHT22;1320;48.128;11.592;2023-10-19T14:30:44;20.80;99.90
2621;DHT22;1320;48.128;11.592;2023-10-19T14:33:10;20.70;99.90
2621;DHT22;1320;48.128;11.592;2023-10-19T14:35:37;20.70;99.90
2621;DHT22;1320;48.128;11.592;2023-10-19T14:38:07;20.70;99.90
2621;DHT22;1320;48.128;11.592;2023-10-19T14:40:34;20.90;99.90
2621;DHT22;1320;48.128;11.592;2023-10-19T14:43:00;21.10;99.90
2621;DHT22;1320;48.128;11.592;2023-10-19T14:45:27;21.20;99.90
2621;DHT22;1320;48.128;11.592;2023-10-19T14:47:58;21.10;99.90
2621;DHT22;1320;48.128;11.592;2023-10-19T14:50:24;21.10;99.90
2621;DHT22;1320;48.128;11.592;2023-10-19T14:52:51;21.10;99.90
2621;DHT22;1320;48.128;11.592;2023-10-19T14:55:18;21.00;99.90
2621;DHT22;1320;48.128;11.592;2023-10-19T14:57:46;20.80;99.90
2621;DHT22;1320;48.128;11.592;2023-10-19T15:00:14;20.70;99.90
2621;DHT22;1320;48.128;11.592;2023-10-19T15:02:48;20.50;99.90
2621;DHT22;1320;48.128;11.592;2023-10-19T15:05:15;20.40;99.90
2621;DHT22;1320;48.128;11.592;2023-10-19T15:15:10;19.80;99.90
2621;DHT22;1320;48.128;11.592;2023-10-19T15:34:44;19.20;99.90
2621;DHT22;1320;48.128;11.592;2023-10-19T15:37:11;19.10;99.90
2621;DHT22;1320;48.128;11.592;2023-10-19T15:39:37;19.00;99.90
2621;DHT22;1320;48.128;11.592;2023-10-19T15:42:02;18.90;99.90
2621;DHT22;1320;48.128;11.592;2023-10-19T15:44:29;18.90;99.90
2621;DHT22;1320;48.128;11.592;2023-10-19T15:46:56;18.90;99.90
2621;DHT22;1320;48.128;11.592;2023-10-19T15:49:21;18.80;99.90
2621;DHT22;1320;48.128;11.592;2023-10-19T15:51:47;18.80;99.90
2621;DHT22;1320;48.128;11.592;2023-10-19T15:54:13;18.80;99.90
2621;DHT22;1320;48.128;11.592;2023-10-19T15:56:39;18.70;99.90
2621;DHT22;1320;48.128;11.592;2023-10-19T15:59:05;18.70;99.90
2621;DHT22;1320;48.128;11.592;2023-10-19T16:01:30;18.70;99.90
2621;DHT22;1320;48.128;11.592;2023-10-19T16:03:59;18.70;99.90
2621;DHT22;1320;48.128;11.592;2023-10-19T16:06:24;18.60;99.90
2621;DHT22;1320;48.128;11.592;2023-10-19T16:08:50;18.60;99.90
2621;DHT22;1320;48.128;11.592;2023-10-19T16:11:17;18.60;99.90
2621;DHT22;1320;48.128;11.592;2023-10-19T16:13:43;18.50;99.90
2621;DHT22;1320;48.128;11.592;2023-10-19T16:43:10;18.10;99.90
2621;DHT22;1320;48.128;11.592;2023-10-19T16:45:36;18.00;99.90
2621;DHT22;1320;48.128;11.592;2023-10-19T16:48:03;18.00;99.90
2621;DHT22;1320;48.128;11.592;2023-10-19T16:50:29;17.90;99.90
2621;DHT22;1320;48.128;11.592;2023-10-19T16:52:57;17.90;99.90
2621;DHT22;1320;48.128;11.592;2023-10-19T16:55:25;17.90;99.90
2621;DHT22;1320;48.128;11.592;2023-10-19T16:57:51;17.90;99.90
2621;DHT22;1320;48.128;11.592;2023-10-19T17:00:20;17.90;99.90
2621;DHT22;1320;48.128;11.592;2023-10-19T17:02:46;17.80;99.90
2621;DHT22;1320;48.128;11.592;2023-10-19T17:05:12;17.80;99.90
2621;DHT22;1320;48.128;11.592;2023-10-19T17:07:37;17.80;99.90
2621;DHT22;1320;48.128;11.592;2023-10-19T17:10:04;17.70;99.90
2621;DHT22;1320;48.128;11.592;2023-10-19T17:12:31;17.70;99.90
2621;DHT22;1320;48.128;11.592;2023-10-19T17:14:58;17.60;99.90
2621;DHT22;1320;48.128;11.592;2023-10-19T17:17:25;17.50;99.90
2621;DHT22;1320;48.128;11.592;2023-10-19T17:19:52;17.50;99.90
2621;DHT22;1320;48.128;11.592;2023-10-19T17:24:44;17.30;99.90
2621;DHT22;1320;48.128;11.592;2023-10-19T17:27:10;17.30;99.90
2621;DHT22;1320;48.128;11.592;2023-10-19T17:29:36;17.30;99.90
2621;DHT22;1320;48.128;11.592;2023-10-19T17:32:02;17.10;99.90
2621;DHT22;1320;48.128;11.592;2023-10-19T17:34:28;17.10;99.90
2621;DHT22;1320;48.128;11.592;2023-10-19T17:36:53;17.10;99.90
2621;DHT22;1320;48.128;11.592;2023-10-19T17:39:19;17.00;99.90
2621;DHT22;1320;48.128;11.592;2023-10-19T17:41:46;17.00;99.90
2621;DHT22;1320;48.128;11.592;2023-10-19T17:44:14;16.90;99.90
2621;DHT22;1320;48.128;11.592;2023-10-19T17:46:40;16.90;99.90
2621;DHT22;1320;48.128;11.592;2023-10-19T17:49:07;16.90;99.90
2621;DHT22;1320;48.128;11.592;2023-10-19T17:51:33;16.80;99.90
2621;DHT22;1320;48.128;11.592;2023-10-19T17:53:58;16.80;99.90
2621;DHT22;1320;48.128;11.592;2023-10-19T17:56:24;16.80;99.90
2621;DHT22;1320;48.128;11.592;2023-10-19T17:58:50;16.80;99.90
2621;DHT22;1320;48.128;11.592;2023-10-19T18:01:17;16.80;99.90
2621;DHT22;1320;48.128;11.592;2023-10-19T18:03:44;16.70;99.90
2621;DHT22;1320;48.128;11.592;2023-10-19T18:06:11;16.70;99.90
2621;DHT22;1320;48.128;11.592;2023-10-19T18:08:37;16.60;99.90
2621;DHT22;1320;48.128;11.592;2023-10-19T18:11:03;16.60;99.90
2621;DHT22;1320;48.128;11.592;2023-10-19T18:13:30;16.50;99.90
2621;DHT22;1320;48.128;11.592;2023-10-19T18:15:56;16.50;99.90
2621;DHT22;1320;48.128;11.592;2023-10-19T18:18:23;16.40;99.90
2621;DHT22;1320;48.128;11.592;2023-10-19T18:20:51;16.40;99.90
2621;DHT22;1320;48.128;11.592;2023-10-19T18:23:17;16.40;99.90
2621;DHT22;1320;48.128;11.592;2023-10-19T18:25:43;16.30;99.90
2621;DHT22;1320;48.128;11.592;2023-10-19T18:28:09;16.30;99.90
2621;DHT22;1320;48.128;11.592;2023-10-19T18:30:35;16.30;99.90
2621;DHT22;1320;48.128;11.592;2023-10-19T18:33:01;16.30;99.90
2621;DHT22;1320;48.128;11.592;2023-10-19T18:35:27;16.30;99.90
2621;DHT22;1320;48.128;11.592;2023-10-19T18:37:53;16.20;99.90
2621;DHT22;1320;48.128;11.592;2023-10-19T18:40:18;16.20;99.90
2621;DHT22;1320;48.128;11.592;2023-10-19T18:42:45;16.20;99.90
2621;DHT22;1320;48.128;11.592;2023-10-19T18:45:11;16.20;99.90
2621;DHT22;1320;48.128;11.592;2023-10-19T18:47:37;16.10;99.90
2621;DHT22;1320;48.128;11.592;2023-10-19T18:57:23;16.00;99.90
2621;DHT22;1320;48.128;11.592;2023-10-19T18:59:48;16.00;99.90
2621;DHT22;1320;48.128;11.592;2023-10-19T19:02:15;16.00;99.90
2621;DHT22;1320;48.128;11.592;2023-10-19T19:04:40;16.00;99.90
2621;DHT22;1320;48.128;11.592;2023-10-19T19:07:07;16.00;99.90
2621;DHT22;1320;48.128;11.592;2023-10-19T19:09:33;16.00;99.90
2621;DHT22;1320;48.128;11.592;2023-10-19T19:11:59;16.00;99.90
2621;DHT22;1320;48.128;11.592;2023-10-19T19:14:25;16.00;99.90
2621;DHT22;1320;48.128;11.592;2023-10-19T19:16:51;16.00;99.90
2621;DHT22;1320;48.128;11.592;2023-10-19T19:19:17;16.00;99.90
2621;DHT22;1320;48.128;11.592;2023-10-19T19:21:43;16.00;99.90
2621;DHT22;1320;48.128;11.592;2023-10-19T19:24:09;16.00;99.90
2621;DHT22;1320;48.128;11.592;2023-10-19T19:26:36;16.10;99.90
2621;DHT22;1320;48.128;11.592;2023-10-19T19:29:01;16.10;99.90
2621;DHT22;1320;48.128;11.592;2023-10-19T19:31:27;16.10;99.90
2621;DHT22;1320;48.128;11.592;2023-10-19T19:33:53;16.10;99.90
2621;DHT22;1320;48.128;11.592;2023-10-19T19:36:19;16.00;99.90
2621;DHT22;1320;48.128;11.592;2023-10-19T19:38:46;16.00;99.90
2621;DHT22;1320;48.128;11.592;2023-10-19T19:41:12;16.00;99.90
2621;DHT22;1320;48.128;11.592;2023-10-19T19:43:38;16.00;99.90
2621;DHT22;1320;48.128;11.592;2023-10-19T19:46:04;15.90;99.90
2621;DHT22;1320;48.128;11.592;2023-10-19T19:48:30;15.90;99.90
2621;DHT22;1320;48.128;11.592;2023-10-19T19:50:57;15.90;99.90
2621;DHT22;1320;48.128;11.592;2023-10-19T19:53:22;15.90;99.90
2621;DHT22;1320;48.128;11.592;2023-10-19T19:55:49;15.90;99.90
2621;DHT22;1320;48.128;11.592;2023-10-19T19:58:15;15.90;99.90
2621;DHT22;1320;48.128;11.592;2023-10-19T20:00:42;15.90;99.90
2621;DHT22;1320;48.128;11.592;2023-10-19T20:03:08;15.90;99.90
2621;DHT22;1320;48.128;11.592;2023-10-19T20:05:36;16.00;99.90
2621;DHT22;1320;48.128;11.592;2023-10-19T20:08:03;15.90;99.90
2621;DHT22;1320;48.128;11.592;2023-10-19T20:10:45;15.90;99.90
2621;DHT22;1320;48.128;11.592;2023-10-19T20:13:13;15.90;99.90
2621;DHT22;1320;48.128;11.592;2023-10-19T20:15:42;15.90;99.90
2621;DHT22;1320;48.128;11.592;2023-10-19T20:18:09;15.90;99.90
2621;DHT22;1320;48.128;11.592;2023-10-19T20:20:36;15.80;99.90
2621;DHT22;1320;48.128;11.592;2023-10-19T20:23:01;15.80;99.90
2621;DHT22;1320;48.128;11.592;2023-10-19T20:25:28;15.80;99.90
2621;DHT22;1320;48.128;11.592;2023-10-19T20:27:55;15.80;99.90
2621;DHT22;1320;48.128;11.592;2023-10-19T20:30:21;15.80;99.90
2621;DHT22;1320;48.128;11.592;2023-10-19T20:32:48;15.80;99.90
2621;DHT22;1320;48.128;11.592;2023-10-19T20:35:15;15.80;99.90
2621;DHT22;1320;48.128;11.592;2023-10-19T20:37:43;15.70;99.90
2621;DHT22;1320;48.128;11.592;2023-10-19T20:40:08;15.70;99.90
2621;DHT22;1320;48.128;11.592;2023-10-19T20:42:38;15.80;99.90
2621;DHT22;1320;48.128;11.592;2023-10-19T20:45:09;15.70;99.90
2621;DHT22;1320;48.128;11.592;2023-10-19T20:47:35;15.80;99.90
2621;DHT22;1320;48.128;11.592;2023-10-19T20:50:01;15.70;99.90
2621;DHT22;1320;48.128;11.592;2023-10-19T20:52:26;15.80;99.90
2621;DHT22;1320;48.128;11.592;2023-10-19T20:54:52;15.70;99.90
2621;DHT22;1320;48.128;11.592;2023-10-19T20:57:18;15.80;99.90
2621;DHT22;1320;48.128;11.592;2023-10-19T20:59:43;15.80;99.90
2621;DHT22;1320;48.128;11.592;2023-10-19T21:02:09;15.80;99.90
2621;DHT22;1320;48.128;11.592;2023-10-19T21:04:36;15.80;99.90
2621;DHT22;1320;48.128;11.592;2023-10-19T21:07:01;15.70;99.90
2621;DHT22;1320;48.128;11.592;2023-10-19T21:09:27;15.70;99.90
2621;DHT22;1320;48.128;11.592;2023-10-19T21:11:53;15.70;99.90
2621;DHT22;1320;48.128;11.592;2023-10-19T21:14:18;15.70;99.90
2621;DHT22;1320;48.128;11.592;2023-10-19T21:16:44;15.70;99.90
2621;DHT22;1320;48.128;11.592;2023-10-19T21:19:10;15.80;99.90
2621;DHT22;1320;48.128;11.592;2023-10-19T21:21:36;15.70;99.90
2621;DHT22;1320;48.128;11.592;2023-10-19T21:24:02;15.70;99.90
2621;DHT22;1320;48.128;11.592;2023-10-19T21:26:29;15.70;99.90
2621;DHT22;1320;48.128;11.592;2023-10-19T21:28:54;15.80;99.90
2621;DHT22;1320;48.128;11.592;2023-10-19T21:31:20;15.80;99.90
2621;DHT22;1320;48.128;11.592;2023-10-19T21:33:47;15.80;99.90
2621;DHT22;1320;48.128;11.592;2023-10-19T21:36:13;15.80;99.90
2621;DHT22;1320;48.128;11.592;2023-10-19T21:38:38;15.80;99.90
2621;DHT22;1320;48.128;11.592;2023-10-19T21:41:08;15.80;99.90
2621;DHT22;1320;48.128;11.592;2023-10-19T21:43:34;15.90;99.90
2621;DHT22;1320;48.128;11.592;2023-10-19T21:46:03;15.80;99.90
2621;DHT22;1320;48.128;11.592;2023-10-19T21:48:29;15.80;99.90
2621;DHT22;1320;48.128;11.592;2023-10-19T21:50:59;15.90;99.90
2621;DHT22;1320;48.128;11.592;2023-10-19T21:53:25;15.80;99.90
2621;DHT22;1320;48.128;11.592;2023-10-19T21:55:54;15.80;99.90
2621;DHT22;1320;48.128;11.592;2023-10-19T21:58:20;15.80;99.90
2621;DHT22;1320;48.128;11.592;2023-10-19T22:00:46;15.80;99.90
2621;DHT22;1320;48.128;11.592;2023-10-19T22:03:30;15.80;99.90
2621;DHT22;1320;48.128;11.592;2023-10-19T22:05:56;15.80;99.90
2621;DHT22;1320;48.128;11.592;2023-10-19T22:08:22;15.80;99.90
2621;DHT22;1320;48.128;11.592;2023-10-19T22:10:48;15.80;99.90
2621;DHT22;1320;48.128;11.592;2023-10-19T22:13:13;15.70;99.90
2621;DHT22;1320;48.128;11.592;2023-10-19T22:15:42;15.70;99.90
2621;DHT22;1320;48.128;11.592;2023-10-19T22:18:08;15.70;99.90
2621;DHT22;1320;48.128;11.592;2023-10-19T22:20:35;15.70;99.90
2621;DHT22;1320;48.128;11.592;2023-10-19T22:23:02;15.60;99.90
2621;DHT22;1320;48.128;11.592;2023-10-19T22:25:29;15.60;99.90
2621;DHT22;1320;48.128;11.592;2023-10-19T22:27:55;15.60;99.90
2621;DHT22;1320;48.128;11.592;2023-10-19T22:30:20;15.60;99.90
2621;DHT22;1320;48.128;11.592;2023-10-19T22:32:50;15.50;99.90
2621;DHT22;1320;48.128;11.592;2023-10-19T22:35:17;15.50;99.90
2621;DHT22;1320;48.128;11.592;2023-10-19T22:45:04;15.30;99.90
2621;DHT22;1320;48.128;11.592;2023-10-19T22:47:30;15.30;99.90
2621;DHT22;1320;48.128;11.592;2023-10-19T22:49:56;15.20;99.90
2621;DHT22;1320;48.128;11.592;2023-10-19T22:52:21;15.10;99.90
2621;DHT22;1320;48.128;11.592;2023-10-19T22:54:50;15.10;99.90